Metar z połowy godziny Komunikat METAR ze strony awiacja.imgw.pl Metar G30 EPPO METAR EPPO 240430Z 21010KT 8000 SCT012 BKN030 02/01 Q1019 R10/290095 =